createdAt,value
2018-11-06T00:01:12.599Z,4.40
2018-11-06T00:03:48.762Z,4.50
2018-11-06T00:06:16.929Z,4.60
2018-11-06T00:08:45.089Z,4.50
2018-11-06T00:11:13.263Z,4.50
2018-11-06T00:13:41.404Z,4.60
2018-11-06T00:16:10.158Z,4.50
2018-11-06T00:18:38.347Z,4.40
2018-11-06T00:21:06.558Z,4.40
2018-11-06T00:23:34.723Z,4.40
2018-11-06T00:26:02.898Z,4.40
2018-11-06T00:28:31.053Z,4.40
2018-11-06T00:30:59.215Z,4.40
2018-11-06T00:33:27.391Z,4.20
2018-11-06T00:35:55.533Z,4.20
2018-11-06T00:38:23.689Z,4.20
2018-11-06T00:40:51.865Z,4.20
2018-11-06T00:43:20.046Z,4.20
2018-11-06T00:45:48.195Z,4.30
2018-11-06T00:48:16.350Z,4.20
2018-11-06T00:50:44.502Z,4.20
2018-11-06T00:53:12.650Z,4.30
2018-11-06T00:55:40.826Z,4.30
2018-11-06T00:58:08.990Z,4.30
2018-11-06T01:00:37.144Z,4.20
2018-11-06T01:03:05.302Z,4.20
2018-11-06T01:05:33.457Z,4.20
2018-11-06T01:08:01.615Z,4.10
2018-11-06T01:10:29.762Z,4.00
2018-11-06T01:12:57.945Z,3.90
2018-11-06T01:15:26.098Z,3.80
2018-11-06T01:17:54.258Z,3.80
2018-11-06T01:20:22.397Z,3.80
2018-11-06T01:22:50.553Z,3.80
2018-11-06T01:25:18.713Z,3.80
2018-11-06T01:27:46.861Z,3.80
2018-11-06T01:30:18.941Z,3.70
2018-11-06T01:32:47.515Z,3.70
2018-11-06T01:35:16.060Z,3.70
2018-11-06T01:37:44.773Z,3.70
2018-11-06T01:40:14.018Z,3.70
2018-11-06T01:42:42.988Z,3.70
2018-11-06T01:45:12.566Z,3.70
2018-11-06T01:47:41.171Z,3.70
2018-11-06T01:50:11.530Z,3.80
2018-11-06T01:52:39.801Z,3.90
2018-11-06T01:55:08.854Z,3.90
2018-11-06T01:57:37.025Z,4.00
2018-11-06T02:00:06.694Z,4.00
2018-11-06T02:02:34.862Z,4.00
2018-11-06T02:05:03.025Z,4.10
2018-11-06T02:07:31.186Z,4.10
2018-11-06T02:09:59.349Z,4.20
2018-11-06T02:12:27.506Z,4.20
2018-11-06T02:14:55.666Z,4.20
2018-11-06T02:17:23.824Z,4.20
2018-11-06T02:19:52.066Z,4.10
2018-11-06T02:22:20.223Z,4.00
2018-11-06T02:24:48.395Z,4.00
2018-11-06T02:27:16.553Z,4.00
2018-11-06T02:29:44.705Z,4.10
2018-11-06T02:32:12.874Z,4.00
2018-11-06T02:34:41.028Z,3.90
2018-11-06T02:37:09.178Z,3.90
2018-11-06T02:39:37.337Z,3.90
2018-11-06T02:42:05.597Z,3.90
2018-11-06T02:44:33.752Z,3.90
2018-11-06T02:47:01.893Z,3.80
2018-11-06T02:49:30.046Z,3.80
2018-11-06T02:51:58.194Z,3.80
2018-11-06T02:54:26.341Z,3.80
2018-11-06T02:56:54.485Z,3.90
2018-11-06T02:59:22.646Z,3.90
2018-11-06T03:01:50.786Z,3.90
2018-11-06T03:04:18.936Z,3.90
2018-11-06T03:06:47.074Z,4.00
2018-11-06T03:09:15.230Z,3.90
2018-11-06T03:11:43.390Z,3.90
2018-11-06T03:14:11.545Z,3.90
2018-11-06T03:16:39.714Z,3.90
2018-11-06T03:19:07.845Z,3.90
2018-11-06T03:21:35.998Z,3.90
2018-11-06T03:24:04.506Z,3.80
2018-11-06T03:26:32.670Z,3.90
2018-11-06T03:29:00.822Z,3.90
2018-11-06T03:31:28.965Z,3.80
2018-11-06T03:33:57.131Z,3.70
2018-11-06T03:36:25.274Z,3.60
2018-11-06T03:38:53.414Z,3.60
2018-11-06T03:41:21.590Z,3.50
2018-11-06T03:43:49.737Z,3.50
2018-11-06T03:46:17.870Z,3.50
2018-11-06T03:48:46.006Z,3.50
2018-11-06T03:51:14.138Z,3.50
2018-11-06T03:53:42.286Z,3.40
2018-11-06T03:56:10.530Z,3.50
2018-11-06T03:58:38.703Z,3.60
2018-11-06T04:01:07.252Z,3.60
2018-11-06T04:03:35.403Z,3.70
2018-11-06T04:06:03.548Z,3.70
2018-11-06T04:08:31.698Z,3.70
2018-11-06T04:10:59.846Z,3.70
2018-11-06T04:13:28.013Z,3.70
2018-11-06T04:15:56.146Z,3.60
2018-11-06T04:18:24.309Z,3.50
2018-11-06T04:20:52.449Z,3.60
2018-11-06T04:23:20.614Z,3.50
2018-11-06T04:25:48.754Z,3.50
2018-11-06T04:28:16.902Z,3.40
2018-11-06T04:30:45.047Z,3.40
2018-11-06T04:33:13.210Z,3.40
2018-11-06T04:35:41.358Z,3.40
2018-11-06T04:38:09.510Z,3.40
2018-11-06T04:40:37.653Z,3.40
2018-11-06T04:43:06.338Z,3.40
2018-11-06T04:45:34.479Z,3.40
2018-11-06T04:48:02.662Z,3.40
2018-11-06T04:50:30.810Z,3.40
2018-11-06T04:52:58.954Z,3.40
2018-11-06T04:55:27.569Z,3.40
2018-11-06T04:57:55.717Z,3.40
2018-11-06T05:00:23.857Z,3.40
2018-11-06T05:02:52.004Z,3.40
2018-11-06T05:05:20.253Z,3.40
2018-11-06T05:07:48.417Z,3.30
2018-11-06T05:10:16.595Z,3.30
2018-11-06T05:12:44.801Z,3.30
2018-11-06T05:15:14.192Z,3.30
2018-11-06T05:17:42.347Z,3.20
2018-11-06T05:20:13.010Z,3.20
2018-11-06T05:22:41.254Z,3.30
2018-11-06T05:25:09.766Z,3.30
2018-11-06T05:27:38.199Z,3.30
2018-11-06T05:30:06.782Z,3.20
2018-11-06T05:32:34.935Z,3.10
2018-11-06T05:35:03.146Z,2.90
2018-11-06T05:37:31.302Z,2.90
2018-11-06T05:40:10.901Z,2.90
2018-11-06T05:42:39.050Z,2.90
2018-11-06T05:45:07.182Z,2.90
2018-11-06T05:47:35.342Z,2.90
2018-11-06T05:50:03.515Z,2.90
2018-11-06T05:52:31.676Z,2.90
2018-11-06T05:54:59.826Z,2.90
2018-11-06T05:57:27.975Z,2.80
2018-11-06T05:59:56.134Z,2.80
2018-11-06T06:02:24.282Z,2.90
2018-11-06T06:04:52.439Z,2.90
2018-11-06T06:07:20.613Z,2.80
2018-11-06T06:09:48.762Z,2.80
2018-11-06T06:12:16.954Z,2.80
2018-11-06T06:14:45.142Z,2.70
2018-11-06T06:17:13.341Z,2.80
2018-11-06T06:19:41.430Z,2.70
2018-11-06T06:22:09.591Z,2.70
2018-11-06T06:24:37.738Z,2.80
2018-11-06T06:27:05.878Z,2.80
2018-11-06T06:29:34.034Z,2.90
2018-11-06T06:32:02.174Z,2.90
2018-11-06T06:34:30.370Z,2.80
2018-11-06T06:36:58.463Z,2.80
2018-11-06T06:39:26.607Z,2.80
2018-11-06T06:41:54.765Z,2.70
2018-11-06T06:44:22.919Z,2.60
2018-11-06T06:46:51.083Z,2.70
2018-11-06T06:49:19.246Z,2.60
2018-11-06T06:51:47.390Z,2.60
2018-11-06T06:54:15.607Z,2.60
2018-11-06T06:56:43.684Z,2.60
2018-11-06T06:59:13.047Z,2.70
2018-11-06T07:01:41.199Z,2.70
2018-11-06T07:04:09.342Z,2.80
2018-11-06T07:06:37.527Z,2.80
2018-11-06T07:09:07.866Z,2.90
2018-11-06T07:11:36.045Z,2.90
2018-11-06T07:14:04.210Z,3.00
2018-11-06T07:16:32.377Z,3.00
2018-11-06T07:19:00.641Z,3.00
2018-11-06T07:21:28.779Z,3.10
2018-11-06T07:23:56.972Z,3.20
2018-11-06T07:26:25.127Z,3.30
2018-11-06T07:28:53.385Z,3.50
2018-11-06T07:31:21.502Z,3.60
2018-11-06T07:33:49.762Z,3.80
2018-11-06T07:36:17.950Z,4.10
2018-11-06T07:38:46.121Z,4.30
2018-11-06T07:41:14.443Z,4.50
2018-11-06T07:43:42.551Z,4.70
2018-11-06T07:46:10.799Z,4.90
2018-11-06T07:48:38.949Z,5.20
2018-11-06T07:51:07.118Z,5.30
2018-11-06T07:53:35.285Z,5.40
2018-11-06T07:56:03.487Z,5.60
2018-11-06T07:58:31.664Z,5.90
2018-11-06T08:00:59.878Z,6.00
2018-11-06T08:03:28.067Z,6.10
2018-11-06T08:05:56.239Z,6.20
2018-11-06T08:08:24.412Z,6.30
2018-11-06T08:10:52.589Z,6.40
2018-11-06T08:13:20.797Z,6.40
2018-11-06T08:15:48.982Z,6.60
2018-11-06T08:18:17.153Z,6.80
2018-11-06T08:20:45.406Z,7.00
2018-11-06T08:23:13.491Z,7.20
2018-11-06T08:25:41.645Z,7.40
2018-11-06T08:28:09.801Z,7.60
2018-11-06T08:30:38.636Z,7.60
2018-11-06T08:33:06.711Z,7.70
2018-11-06T08:35:34.938Z,7.80
2018-11-06T08:38:03.110Z,8.00
2018-11-06T08:40:31.282Z,8.00
2018-11-06T08:42:59.426Z,8.00
2018-11-06T08:45:27.602Z,8.40
2018-11-06T08:47:55.772Z,9.20
2018-11-06T08:50:23.958Z,10.50
2018-11-06T08:52:52.102Z,11.50
2018-11-06T08:55:20.723Z,13.10
2018-11-06T08:57:49.268Z,13.60
2018-11-06T09:00:18.469Z,14.00
2018-11-06T09:02:51.556Z,13.50
2018-11-06T09:05:23.259Z,12.40
2018-11-06T09:07:52.585Z,11.90
2018-11-06T09:12:56.329Z,11.20
2018-11-06T09:15:25.619Z,10.80
2018-11-06T09:17:56.616Z,10.40
2018-11-06T09:20:26.711Z,9.90
2018-11-06T09:22:56.787Z,9.90
2018-11-06T09:25:26.453Z,10.10
2018-11-06T09:27:55.208Z,10.10
2018-11-06T09:30:24.179Z,10.10
2018-11-06T09:32:52.413Z,10.10
2018-11-06T09:35:23.402Z,10.60
2018-11-06T09:37:53.378Z,10.70
2018-11-06T09:40:23.616Z,10.50
2018-11-06T09:42:55.137Z,10.50
2018-11-06T09:45:26.120Z,10.40
2018-11-06T09:47:54.834Z,10.30
2018-11-06T09:50:26.173Z,10.20
2018-11-06T09:52:54.450Z,10.40
2018-11-06T09:55:22.838Z,10.30
2018-11-06T09:57:51.071Z,10.50
2018-11-06T10:00:20.188Z,10.50
2018-11-06T10:02:48.327Z,10.70
2018-11-06T10:05:17.175Z,10.90
2018-11-06T10:07:45.442Z,10.90
2018-11-06T10:10:15.002Z,11.20
2018-11-06T10:12:43.326Z,11.10
2018-11-06T10:15:13.322Z,11.00
2018-11-06T10:17:42.646Z,11.10
2018-11-06T10:20:11.852Z,11.00
2018-11-06T10:22:39.997Z,10.90
2018-11-06T10:25:08.396Z,10.80
2018-11-06T10:27:37.194Z,11.10
2018-11-06T10:30:08.350Z,11.20
2018-11-06T10:32:36.498Z,11.20
2018-11-06T10:35:05.046Z,11.40
2018-11-06T10:37:33.194Z,11.60
2018-11-06T10:40:01.369Z,11.80
2018-11-06T10:42:29.598Z,12.00
2018-11-06T10:44:57.765Z,12.20
2018-11-06T10:47:25.905Z,12.40
2018-11-06T10:49:54.068Z,12.50
2018-11-06T10:52:22.238Z,12.70
2018-11-06T10:54:50.426Z,12.80
2018-11-06T10:57:18.567Z,12.80
2018-11-06T10:59:47.199Z,12.60
2018-11-06T11:02:16.317Z,12.50
2018-11-06T11:04:44.462Z,12.60
2018-11-06T11:07:12.626Z,12.70
2018-11-06T11:09:40.756Z,12.70
2018-11-06T11:12:08.913Z,12.80
2018-11-06T11:14:37.051Z,12.70
2018-11-06T11:17:05.558Z,12.90
2018-11-06T11:19:33.697Z,13.10
2018-11-06T11:22:01.847Z,13.20
2018-11-06T11:24:29.994Z,13.20
2018-11-06T11:26:58.145Z,13.20
2018-11-06T11:29:26.298Z,13.20
2018-11-06T11:31:54.474Z,13.20
2018-11-06T11:34:22.622Z,13.10
2018-11-06T11:36:50.764Z,12.80
2018-11-06T11:39:18.920Z,12.90
2018-11-06T11:41:47.079Z,13.10
2018-11-06T11:44:15.218Z,13.20
2018-11-06T11:46:43.383Z,13.10
2018-11-06T11:49:11.522Z,13.20
2018-11-06T11:51:39.675Z,13.20
2018-11-06T11:54:07.825Z,12.90
2018-11-06T11:56:35.983Z,13.00
2018-11-06T11:59:04.131Z,13.20
2018-11-06T12:01:32.299Z,13.50
2018-11-06T12:04:00.521Z,13.60
2018-11-06T12:06:28.674Z,13.70
2018-11-06T12:08:57.225Z,13.80
2018-11-06T12:11:25.445Z,13.90
2018-11-06T12:13:53.969Z,14.10
2018-11-06T12:16:22.299Z,14.30
2018-11-06T12:18:50.481Z,14.10
2018-11-06T12:21:18.642Z,14.10
2018-11-06T12:23:46.872Z,14.30
2018-11-06T12:26:15.058Z,14.50
2018-11-06T12:28:43.238Z,14.70
2018-11-06T12:31:11.379Z,14.90
2018-11-06T12:33:39.543Z,14.80
2018-11-06T12:36:07.703Z,14.80
2018-11-06T12:38:38.283Z,14.80
2018-11-06T12:41:07.262Z,14.70
2018-11-06T12:43:35.777Z,14.70
2018-11-06T12:46:04.261Z,14.70
2018-11-06T12:48:32.414Z,14.60
2018-11-06T12:51:00.568Z,14.60
2018-11-06T12:53:28.714Z,14.70
2018-11-06T12:55:56.891Z,14.60
2018-11-06T12:58:25.083Z,14.60
2018-11-06T13:00:53.289Z,14.60
2018-11-06T13:03:21.519Z,14.60
2018-11-06T13:05:49.819Z,14.50
2018-11-06T13:08:18.102Z,14.50
2018-11-06T13:10:46.322Z,14.50
2018-11-06T13:13:14.569Z,14.50
2018-11-06T13:15:42.830Z,14.60
2018-11-06T13:18:11.022Z,14.60
2018-11-06T13:20:39.358Z,14.70
2018-11-06T13:23:07.549Z,14.80
2018-11-06T13:25:35.821Z,14.90
2018-11-06T13:28:03.981Z,15.00
2018-11-06T13:30:32.317Z,15.00
2018-11-06T13:33:00.555Z,15.00
2018-11-06T13:35:28.736Z,15.00
2018-11-06T13:37:56.937Z,15.00
2018-11-06T13:40:25.114Z,14.90
2018-11-06T13:42:53.566Z,15.00
2018-11-06T13:45:23.171Z,15.00
2018-11-06T13:47:51.204Z,15.10
2018-11-06T13:50:19.397Z,15.00
2018-11-06T13:52:47.574Z,14.80
2018-11-06T13:55:16.582Z,14.80
2018-11-06T13:57:45.478Z,14.70
2018-11-06T14:00:16.707Z,14.60
2018-11-06T14:02:44.901Z,14.50
2018-11-06T14:05:13.358Z,14.40
2018-11-06T14:07:41.525Z,14.30
2018-11-06T14:10:09.822Z,14.20
2018-11-06T14:12:38.293Z,14.20
2018-11-06T14:15:06.542Z,14.20
2018-11-06T14:17:34.722Z,14.00
2018-11-06T14:20:02.893Z,13.90
2018-11-06T14:22:31.094Z,13.90
2018-11-06T14:24:59.326Z,13.80
2018-11-06T14:27:27.557Z,13.80
2018-11-06T14:29:55.707Z,13.80
2018-11-06T14:32:24.538Z,13.70
2018-11-06T14:34:52.694Z,13.60
2018-11-06T14:37:20.843Z,13.50
2018-11-06T14:39:49.022Z,13.40
2018-11-06T14:42:17.259Z,13.40
2018-11-06T14:44:45.477Z,13.30
2018-11-06T14:47:13.638Z,13.30
2018-11-06T14:49:41.988Z,13.20
2018-11-06T14:52:10.195Z,13.00
2018-11-06T14:54:38.680Z,12.90
2018-11-06T14:57:07.134Z,12.80
2018-11-06T14:59:35.294Z,12.70
2018-11-06T15:02:03.454Z,12.50
2018-11-06T15:04:31.604Z,12.40
2018-11-06T15:06:59.846Z,12.30
2018-11-06T15:09:28.197Z,12.20
2018-11-06T15:11:56.397Z,12.10
2018-11-06T15:14:24.623Z,11.90
2018-11-06T15:16:52.805Z,11.80
2018-11-06T15:19:20.967Z,10.70
2018-11-06T15:21:49.107Z,11.70
2018-11-06T15:24:17.274Z,11.60
2018-11-06T15:26:45.446Z,11.50
2018-11-06T15:29:13.633Z,11.30
2018-11-06T15:31:41.806Z,11.20
2018-11-06T15:34:09.983Z,11.20
2018-11-06T15:36:38.183Z,11.00
2018-11-06T15:39:08.242Z,10.90
2018-11-06T15:41:36.791Z,10.80
2018-11-06T15:44:05.391Z,10.70
2018-11-06T15:46:33.543Z,10.60
2018-11-06T15:49:01.790Z,10.60
2018-11-06T15:51:29.870Z,10.50
2018-11-06T15:53:58.042Z,10.40
2018-11-06T15:56:26.198Z,10.60
2018-11-06T15:58:54.779Z,10.70
2018-11-06T16:01:23.771Z,10.70
2018-11-06T16:03:51.954Z,10.70
2018-11-06T16:06:20.209Z,10.70
2018-11-06T16:08:48.445Z,10.80
2018-11-06T16:11:16.612Z,10.80
2018-11-06T16:13:45.098Z,11.00
2018-11-06T16:16:13.331Z,11.00
2018-11-06T16:18:41.533Z,11.10
2018-11-06T16:21:09.680Z,11.20
2018-11-06T16:23:37.884Z,11.20
2018-11-06T16:26:06.054Z,11.20
2018-11-06T16:28:34.229Z,11.10
2018-11-06T16:31:02.455Z,11.00
2018-11-06T16:33:30.633Z,10.90
2018-11-06T16:35:58.802Z,10.80
2018-11-06T16:38:27.035Z,10.70
2018-11-06T16:40:55.222Z,10.70
2018-11-06T16:43:23.434Z,10.80
2018-11-06T16:45:51.605Z,10.90
2018-11-06T16:48:19.880Z,11.10
2018-11-06T16:50:49.154Z,11.10
2018-11-06T16:53:17.539Z,11.10
2018-11-06T16:55:45.734Z,11.20
2018-11-06T16:58:13.926Z,11.20
2018-11-06T17:00:42.293Z,11.20
2018-11-06T17:03:10.318Z,11.10
2018-11-06T17:05:38.499Z,11.00
2018-11-06T17:08:06.885Z,10.90
2018-11-06T17:10:35.073Z,10.90
2018-11-06T17:13:03.303Z,10.80
2018-11-06T17:15:31.474Z,10.80
2018-11-06T17:17:59.654Z,10.70
2018-11-06T17:20:27.861Z,10.60
2018-11-06T17:22:56.099Z,10.30
2018-11-06T17:25:24.392Z,10.20
2018-11-06T17:27:52.572Z,10.20
2018-11-06T17:30:20.826Z,10.10
2018-11-06T17:32:49.022Z,10.20
2018-11-06T17:35:18.476Z,10.20
2018-11-06T17:37:47.389Z,10.30
2018-11-06T17:40:16.978Z,10.30
2018-11-06T17:42:45.273Z,10.10
2018-11-06T17:45:15.657Z,10.00
2018-11-06T17:47:43.906Z,9.90
2018-11-06T17:50:14.265Z,10.00
2018-11-06T17:52:42.410Z,9.90
2018-11-06T17:55:12.783Z,9.90
2018-11-06T17:57:41.139Z,9.80
2018-11-06T18:00:15.973Z,9.80
2018-11-06T18:02:44.630Z,9.70
2018-11-06T18:05:13.850Z,9.70
2018-11-06T18:07:42.706Z,9.70
2018-11-06T18:10:12.784Z,9.60
2018-11-06T18:12:40.938Z,9.50
2018-11-06T18:15:19.531Z,9.40
2018-11-06T18:17:55.672Z,9.40
2018-11-06T18:20:26.730Z,9.40
2018-11-06T18:22:55.207Z,9.40
2018-11-06T18:25:23.889Z,9.50
2018-11-06T18:27:52.031Z,9.50
2018-11-06T18:30:20.283Z,9.50
2018-11-06T18:32:49.592Z,9.40
2018-11-06T18:35:19.727Z,9.40
2018-11-06T18:37:47.862Z,9.40
2018-11-06T18:40:17.883Z,9.40
2018-11-06T18:42:46.822Z,9.40
2018-11-06T18:45:15.410Z,9.30
2018-11-06T18:47:43.656Z,9.30
2018-11-06T18:50:13.131Z,9.20
2018-11-06T18:52:42.430Z,9.30
2018-11-06T18:55:10.586Z,9.30
2018-11-06T18:57:38.759Z,9.30
2018-11-06T19:00:11.210Z,9.30
2018-11-06T19:02:39.419Z,9.30
2018-11-06T19:05:07.642Z,9.30
2018-11-06T19:07:36.188Z,9.30
2018-11-06T19:10:04.438Z,9.30
2018-11-06T19:12:32.620Z,9.30
2018-11-06T19:15:00.799Z,9.20
2018-11-06T19:17:30.103Z,9.10
2018-11-06T19:19:58.304Z,9.00
2018-11-06T19:22:26.506Z,9.00
2018-11-06T19:24:54.770Z,8.80
2018-11-06T19:27:22.917Z,8.70
2018-11-06T19:29:51.088Z,8.60
2018-11-06T19:32:19.255Z,8.40
2018-11-06T19:34:47.434Z,8.40
2018-11-06T19:37:15.612Z,8.20
2018-11-06T19:39:43.866Z,8.20
2018-11-06T19:42:12.215Z,8.10
2018-11-06T19:44:40.468Z,8.00
2018-11-06T19:47:08.723Z,7.90
2018-11-06T19:49:36.938Z,7.80
2018-11-06T19:52:05.251Z,7.80
2018-11-06T19:54:33.561Z,7.70
2018-11-06T19:57:01.667Z,7.70
2018-11-06T19:59:29.913Z,7.60
2018-11-06T20:01:58.022Z,7.50
2018-11-06T20:04:26.204Z,7.40
2018-11-06T20:06:54.358Z,7.40
2018-11-06T20:09:22.532Z,7.30
2018-11-06T20:11:50.811Z,7.30
2018-11-06T20:14:18.839Z,7.30
2018-11-06T20:16:48.078Z,7.30
2018-11-06T20:19:16.228Z,7.30
2018-11-06T20:21:44.710Z,7.30
2018-11-06T20:24:12.967Z,7.20
2018-11-06T20:26:41.090Z,7.20
2018-11-06T20:29:09.270Z,7.10
2018-11-06T20:31:37.938Z,7.10
2018-11-06T20:34:06.285Z,7.10
2018-11-06T20:36:34.507Z,7.10
2018-11-06T20:39:02.721Z,7.00
2018-11-06T20:41:31.075Z,7.00
2018-11-06T20:43:59.263Z,7.00
2018-11-06T20:46:27.823Z,7.00
2018-11-06T20:48:55.903Z,7.00
2018-11-06T20:51:29.039Z,7.00
2018-11-06T20:53:57.278Z,7.00
2018-11-06T20:56:25.459Z,7.10
2018-11-06T20:58:53.736Z,7.00
2018-11-06T21:01:22.276Z,7.00
2018-11-06T21:03:50.370Z,7.00
2018-11-06T21:06:18.556Z,7.00
2018-11-06T21:08:46.687Z,7.10
2018-11-06T21:11:14.839Z,7.20
2018-11-06T21:13:43.059Z,7.30
2018-11-06T21:16:11.422Z,7.40
2018-11-06T21:18:39.674Z,7.40
2018-11-06T21:21:07.844Z,7.40
2018-11-06T21:23:35.990Z,7.30
2018-11-06T21:26:04.425Z,7.30
2018-11-06T21:28:32.463Z,7.20
2018-11-06T21:31:00.654Z,7.10
2018-11-06T21:33:28.834Z,7.00
2018-11-06T21:35:57.091Z,7.00
2018-11-06T21:38:25.267Z,7.00
2018-11-06T21:40:53.522Z,7.10
2018-11-06T21:43:21.791Z,7.00
2018-11-06T21:45:50.036Z,7.00
2018-11-06T21:48:18.210Z,7.00
2018-11-06T21:50:46.387Z,7.10
2018-11-06T21:53:14.648Z,7.00
2018-11-06T21:55:42.918Z,6.90
2018-11-06T21:58:11.209Z,6.90
2018-11-06T22:00:39.502Z,6.80
2018-11-06T22:03:07.728Z,6.70
2018-11-06T22:05:35.951Z,6.70
2018-11-06T22:08:04.334Z,6.70
2018-11-06T22:10:32.666Z,6.60
2018-11-06T22:13:00.974Z,6.60
2018-11-06T22:15:29.098Z,6.60
2018-11-06T22:17:57.271Z,6.60
2018-11-06T22:20:25.930Z,6.70
2018-11-06T22:22:54.644Z,6.70
2018-11-06T22:25:22.967Z,6.70
2018-11-06T22:27:51.155Z,6.60
2018-11-06T22:30:19.350Z,6.50
2018-11-06T22:32:47.795Z,6.50
2018-11-06T22:35:16.891Z,6.50
2018-11-06T22:37:45.138Z,6.50
2018-11-06T22:40:14.890Z,6.50
2018-11-06T22:42:43.106Z,6.50
2018-11-06T22:45:12.889Z,6.50
2018-11-06T22:47:41.207Z,6.40
2018-11-06T22:50:11.190Z,6.40
2018-11-06T22:52:40.075Z,6.40
2018-11-06T22:55:08.390Z,6.50
2018-11-06T22:57:36.674Z,6.70
2018-11-06T23:00:08.849Z,6.80
2018-11-06T23:02:37.090Z,6.80
2018-11-06T23:05:05.694Z,6.80
2018-11-06T23:07:39.270Z,6.70
2018-11-06T23:10:07.454Z,6.60
2018-11-06T23:12:35.646Z,6.50
2018-11-06T23:15:03.851Z,6.40
2018-11-06T23:17:32.036Z,6.40
2018-11-06T23:20:00.280Z,6.30
2018-11-06T23:22:28.530Z,6.30
2018-11-06T23:24:59.337Z,6.30
2018-11-06T23:27:27.530Z,6.20
2018-11-06T23:29:55.720Z,6.20
2018-11-06T23:32:23.921Z,6.20
2018-11-06T23:34:52.127Z,6.20
2018-11-06T23:37:20.294Z,6.20
2018-11-06T23:39:48.511Z,6.10
2018-11-06T23:42:16.692Z,6.10
2018-11-06T23:44:44.870Z,6.10
2018-11-06T23:47:13.038Z,6.00
2018-11-06T23:49:41.250Z,6.10
2018-11-06T23:52:09.390Z,6.10
2018-11-06T23:54:37.547Z,6.00
2018-11-06T23:57:05.803Z,6.00
2018-11-06T23:59:33.959Z,6.00
